createdAt,value
2022-08-16T00:01:18.115Z,19.70
2022-08-16T00:03:46.623Z,19.67
2022-08-16T00:06:15.441Z,19.59
2022-08-16T00:08:45.829Z,19.50
2022-08-16T00:11:15.436Z,19.46
2022-08-16T00:13:54.127Z,19.43
2022-08-16T00:17:06.038Z,19.44
2022-08-16T00:19:19.747Z,19.41
2022-08-16T00:21:52.230Z,19.41
2022-08-16T00:24:31.243Z,19.42
2022-08-16T00:27:03.432Z,19.39
2022-08-16T00:29:31.974Z,19.38
2022-08-16T00:32:06.073Z,19.35
2022-08-16T00:34:41.372Z,19.34
2022-08-16T00:37:57.485Z,19.25
2022-08-16T00:40:33.384Z,19.21
2022-08-16T00:43:19.282Z,19.18
2022-08-16T00:45:58.340Z,19.17
2022-08-16T00:48:32.086Z,19.20
2022-08-16T00:51:16.037Z,19.26
2022-08-16T00:53:45.999Z,19.31
2022-08-16T00:56:56.529Z,19.26
2022-08-16T00:59:08.341Z,19.15
2022-08-16T01:01:36.091Z,19.10
2022-08-16T01:04:05.321Z,19.03
2022-08-16T01:06:48.738Z,19.05
2022-08-16T01:09:23.230Z,19.06
2022-08-16T01:12:03.323Z,19.00
2022-08-16T01:14:49.955Z,18.95
2022-08-16T01:17:24.144Z,18.84
2022-08-16T01:19:59.194Z,18.84
2022-08-16T01:22:49.756Z,18.76
2022-08-16T01:25:24.551Z,18.76
2022-08-16T01:28:07.517Z,18.74
2022-08-16T01:30:40.006Z,18.68
2022-08-16T01:33:19.351Z,18.69
2022-08-16T01:35:56.613Z,18.73
2022-08-16T01:38:28.732Z,18.76
2022-08-16T01:41:03.044Z,18.74
2022-08-16T01:43:33.813Z,18.71
2022-08-16T01:46:37.409Z,18.67
2022-08-16T01:49:00.068Z,18.54
2022-08-16T01:51:28.799Z,18.51
2022-08-16T01:53:58.225Z,18.52
2022-08-16T01:56:30.788Z,18.55
2022-08-16T01:59:02.074Z,18.52
2022-08-16T02:01:30.267Z,18.56
2022-08-16T02:04:10.129Z,18.58
2022-08-16T02:06:46.879Z,18.57
2022-08-16T02:09:21.078Z,18.56
2022-08-16T02:11:57.770Z,18.52
2022-08-16T02:14:28.359Z,18.47
2022-08-16T02:17:03.120Z,18.20
2022-08-16T02:19:59.431Z,18.38
2022-08-16T02:22:35.126Z,18.33
2022-08-16T02:25:09.760Z,18.36
2022-08-16T02:27:39.347Z,18.36
2022-08-16T02:30:36.779Z,18.36
2022-08-16T02:33:11.143Z,18.37
2022-08-16T02:35:49.857Z,18.35
2022-08-16T02:38:23.872Z,18.29
2022-08-16T02:40:51.690Z,18.27
2022-08-16T02:43:27.675Z,18.30
2022-08-16T02:45:58.583Z,18.24
2022-08-16T02:48:28.945Z,18.24
2022-08-16T02:51:05.949Z,18.24
2022-08-16T02:53:43.868Z,18.21
2022-08-16T02:56:15.275Z,18.21
2022-08-16T02:58:50.090Z,18.18
2022-08-16T03:01:24.254Z,18.16
2022-08-16T03:04:41.471Z,18.12
2022-08-16T03:06:43.378Z,18.12
2022-08-16T03:09:35.524Z,18.09
2022-08-16T03:12:04.635Z,18.04
2022-08-16T03:14:33.411Z,18.01
2022-08-16T03:17:02.253Z,17.95
2022-08-16T03:19:47.075Z,17.89
2022-08-16T03:22:28.990Z,17.81
2022-08-16T03:25:07.376Z,17.79
2022-08-16T03:27:39.102Z,17.83
2022-08-16T03:30:25.955Z,17.77
2022-08-16T03:32:58.044Z,17.73
2022-08-16T03:35:32.774Z,17.80
2022-08-16T03:38:32.602Z,17.83
2022-08-16T03:40:59.420Z,17.81
2022-08-16T03:43:51.309Z,17.86
2022-08-16T03:46:44.405Z,17.91
2022-08-16T03:49:12.289Z,17.94
2022-08-16T03:51:43.727Z,17.95
2022-08-16T03:54:18.380Z,17.92
2022-08-16T03:56:57.113Z,17.90
2022-08-16T03:59:29.628Z,17.84
2022-08-16T04:02:00.974Z,17.80
2022-08-16T04:04:33.183Z,17.77
2022-08-16T04:07:07.252Z,17.77
2022-08-16T04:09:38.866Z,17.80
2022-08-16T04:12:52.467Z,17.82
2022-08-16T04:15:00.572Z,17.82
2022-08-16T04:17:30.216Z,17.90
2022-08-16T04:19:58.500Z,17.99
2022-08-16T04:22:28.369Z,17.99
2022-08-16T04:25:01.463Z,18.06
2022-08-16T04:27:34.689Z,18.03
2022-08-16T04:30:05.418Z,17.90
2022-08-16T04:32:42.371Z,17.97
2022-08-16T04:35:16.576Z,17.91
2022-08-16T04:37:46.398Z,17.95
2022-08-16T04:40:25.313Z,18.03
2022-08-16T04:42:55.403Z,18.06
2022-08-16T04:45:36.304Z,18.10
2022-08-16T04:48:12.411Z,18.08
2022-08-16T04:50:58.036Z,18.12
2022-08-16T04:53:41.322Z,18.17
2022-08-16T04:56:11.282Z,18.24
2022-08-16T04:58:45.608Z,18.26
2022-08-16T05:01:17.900Z,18.24
2022-08-16T05:04:00.649Z,18.26
2022-08-16T05:06:44.666Z,18.28
2022-08-16T05:09:39.222Z,18.29
2022-08-16T05:12:22.135Z,18.37
2022-08-16T05:15:02.357Z,18.48
2022-08-16T05:17:34.381Z,18.62
2022-08-16T05:20:38.906Z,18.71
2022-08-16T05:22:59.121Z,18.75
2022-08-16T05:25:40.646Z,18.88
2022-08-16T05:28:11.831Z,18.91
2022-08-16T05:30:44.208Z,18.92
2022-08-16T05:33:22.703Z,18.93
2022-08-16T05:35:54.930Z,18.94
2022-08-16T05:38:41.843Z,19.01
2022-08-16T05:41:13.876Z,19.13
2022-08-16T05:43:46.884Z,19.21
2022-08-16T05:46:30.375Z,19.28
2022-08-16T05:49:13.654Z,19.36
2022-08-16T05:51:45.709Z,19.43
2022-08-16T05:54:20.253Z,19.56
2022-08-16T05:56:56.025Z,19.82
2022-08-16T05:59:24.907Z,20.09
2022-08-16T06:01:55.315Z,20.31
2022-08-16T06:04:36.418Z,20.37
2022-08-16T06:07:24.575Z,20.41
2022-08-16T06:10:02.281Z,20.47
2022-08-16T06:12:32.531Z,20.35
2022-08-16T06:15:09.994Z,20.41
2022-08-16T06:17:42.638Z,20.48
2022-08-16T06:20:23.398Z,20.47
2022-08-16T06:22:57.264Z,20.59
2022-08-16T06:25:36.628Z,20.68
2022-08-16T06:28:10.253Z,20.88
2022-08-16T06:30:45.240Z,21.21
2022-08-16T06:33:22.524Z,21.54
2022-08-16T06:35:55.286Z,21.80
2022-08-16T06:38:33.260Z,21.93
2022-08-16T06:41:13.856Z,22.09
2022-08-16T06:43:43.343Z,22.04
2022-08-16T06:46:34.256Z,22.05
2022-08-16T06:49:12.481Z,22.12
2022-08-16T06:51:46.014Z,22.16
2022-08-16T06:54:17.346Z,22.22
2022-08-16T06:56:44.677Z,22.09
2022-08-16T06:59:14.774Z,22.18
2022-08-16T07:01:54.324Z,22.15
2022-08-16T07:04:31.729Z,22.23
2022-08-16T07:07:06.291Z,22.30
2022-08-16T07:09:37.035Z,22.42
2022-08-16T07:12:05.567Z,22.51
2022-08-16T07:14:35.556Z,22.62
2022-08-16T07:17:08.450Z,22.69
2022-08-16T07:20:04.151Z,22.77
2022-08-16T07:22:41.407Z,22.84
2022-08-16T07:25:17.547Z,22.81
2022-08-16T07:27:45.964Z,22.91
2022-08-16T07:30:45.980Z,23.07
2022-08-16T07:33:07.942Z,23.16
2022-08-16T07:35:44.294Z,23.28
2022-08-16T07:38:14.054Z,23.35
2022-08-16T07:41:01.183Z,23.53
2022-08-16T07:43:31.912Z,23.71
2022-08-16T07:46:02.775Z,23.80
2022-08-16T07:48:34.075Z,23.91
2022-08-16T07:51:08.864Z,23.88
2022-08-16T07:53:43.472Z,24.02
2022-08-16T07:56:14.395Z,24.19
2022-08-16T07:58:42.358Z,24.42
2022-08-16T08:01:16.244Z,24.40
2022-08-16T08:03:49.595Z,24.57
2022-08-16T08:06:25.094Z,24.83
2022-08-16T08:08:57.299Z,25.24
2022-08-16T08:11:29.881Z,25.44
2022-08-16T08:14:03.774Z,25.73
2022-08-16T08:16:39.715Z,26.01
2022-08-16T08:19:19.130Z,26.03
2022-08-16T08:21:58.858Z,26.25
2022-08-16T08:24:49.499Z,26.40
2022-08-16T08:27:22.566Z,26.71
2022-08-16T08:30:49.752Z,27.06
2022-08-16T08:33:00.267Z,27.13
2022-08-16T08:35:36.070Z,27.56
2022-08-16T08:38:06.679Z,27.71
2022-08-16T08:40:35.736Z,27.97
2022-08-16T08:43:11.906Z,28.32
2022-08-16T08:45:48.135Z,28.76
2022-08-16T08:48:34.850Z,29.51
2022-08-16T08:51:13.564Z,30.02
2022-08-16T08:53:57.743Z,30.92
2022-08-16T08:56:35.122Z,31.41
2022-08-16T08:59:23.522Z,31.56
2022-08-16T09:01:57.573Z,31.86
2022-08-16T09:04:29.955Z,31.98
2022-08-16T09:07:01.157Z,32.76
2022-08-16T09:09:33.411Z,33.25
2022-08-16T09:12:06.151Z,33.54
2022-08-16T09:14:51.137Z,32.88
2022-08-16T09:17:49.118Z,32.90
2022-08-16T09:20:14.345Z,33.59
2022-08-16T09:22:44.250Z,33.98
2022-08-16T09:25:26.328Z,34.41
2022-08-16T09:28:09.041Z,34.59
2022-08-16T09:30:44.093Z,34.75
2022-08-16T09:33:18.247Z,34.83
2022-08-16T09:35:47.475Z,35.07
2022-08-16T09:38:32.363Z,35.32
2022-08-16T09:41:06.393Z,35.47
2022-08-16T09:43:58.648Z,35.37
2022-08-16T09:46:45.731Z,35.48
2022-08-16T09:49:16.633Z,36.06
2022-08-16T09:51:55.488Z,36.58
2022-08-16T09:54:32.416Z,36.50
2022-08-16T09:57:01.579Z,36.37
2022-08-16T09:59:31.383Z,36.65
2022-08-16T10:02:27.773Z,35.45
2022-08-16T10:04:55.390Z,35.90
2022-08-16T10:07:38.247Z,36.61
2022-08-16T10:10:18.816Z,37.22
2022-08-16T10:13:16.390Z,37.69
2022-08-16T10:15:54.773Z,37.20
2022-08-16T10:19:00.248Z,37.96
2022-08-16T10:21:10.688Z,37.98
2022-08-16T10:23:38.519Z,38.42
2022-08-16T10:27:19.945Z,37.81
2022-08-16T10:28:53.648Z,36.80
2022-08-16T10:31:43.493Z,35.82
2022-08-16T10:34:31.241Z,33.55
2022-08-16T10:36:57.858Z,32.44
2022-08-16T10:39:25.720Z,32.16
2022-08-16T10:41:53.210Z,32.58
2022-08-16T10:44:21.056Z,32.54
2022-08-16T10:46:49.247Z,32.96
2022-08-16T10:49:18.372Z,34.23
2022-08-16T10:52:01.846Z,34.49
2022-08-16T10:54:32.115Z,34.47
2022-08-16T10:57:01.280Z,34.85
2022-08-16T10:59:46.762Z,34.51
2022-08-16T11:02:58.930Z,33.16
2022-08-16T11:05:14.172Z,32.96
2022-08-16T11:07:54.841Z,33.13
2022-08-16T11:19:12.278Z,32.74
2022-08-16T11:24:42.710Z,34.55
2022-08-16T11:27:23.482Z,35.22
2022-08-16T11:29:55.013Z,36.23
2022-08-16T11:32:31.395Z,36.89
2022-08-16T11:35:13.883Z,37.40
2022-08-16T11:40:40.637Z,36.94
2022-08-16T11:43:13.133Z,36.90
2022-08-16T11:45:53.826Z,37.27
2022-08-16T11:48:24.067Z,37.37
2022-08-16T11:50:51.692Z,37.50
2022-08-16T11:53:20.212Z,36.86
2022-08-16T11:55:54.988Z,35.41
2022-08-16T11:58:24.492Z,35.08
2022-08-16T12:00:53.709Z,34.74
2022-08-16T12:03:31.538Z,34.68
2022-08-16T12:06:10.984Z,34.40
2022-08-16T12:08:55.540Z,33.82
2022-08-16T12:11:23.872Z,33.67
2022-08-16T12:13:54.630Z,32.60
2022-08-16T12:16:22.118Z,32.22
2022-08-16T12:18:50.040Z,32.55
2022-08-16T12:21:18.328Z,32.69
2022-08-16T12:23:47.189Z,32.75
2022-08-16T12:26:14.581Z,32.71
2022-08-16T12:28:56.162Z,32.47
2022-08-16T12:31:25.804Z,32.36
2022-08-16T12:33:57.554Z,31.93
2022-08-16T12:36:26.309Z,31.59
2022-08-16T12:38:57.752Z,31.79
2022-08-16T12:41:27.008Z,31.75
2022-08-16T12:43:57.146Z,31.39
2022-08-16T12:46:29.015Z,31.58
2022-08-16T12:48:59.642Z,31.67
2022-08-16T12:51:59.640Z,31.45
2022-08-16T12:54:25.989Z,31.44
2022-08-16T12:56:53.630Z,31.40
2022-08-16T12:59:23.668Z,31.49
2022-08-16T13:01:58.547Z,31.68
2022-08-16T13:04:31.457Z,31.81
2022-08-16T13:09:42.361Z,31.58
2022-08-16T13:12:24.955Z,31.61
2022-08-16T13:14:53.657Z,31.67
2022-08-16T13:17:29.875Z,31.62
2022-08-16T13:20:13.328Z,31.73
2022-08-16T13:22:47.303Z,31.95
2022-08-16T13:25:21.122Z,31.81
2022-08-16T13:28:02.432Z,31.56
2022-08-16T13:30:41.925Z,31.64
2022-08-16T13:33:17.502Z,31.41
2022-08-16T13:35:56.201Z,31.63
2022-08-16T13:38:36.796Z,31.57
2022-08-16T13:41:08.419Z,31.69
2022-08-16T13:43:38.167Z,31.58
2022-08-16T13:46:06.720Z,31.17
2022-08-16T13:48:44.183Z,31.11
2022-08-16T13:51:18.715Z,31.16
2022-08-16T13:53:59.757Z,30.93
2022-08-16T13:56:37.253Z,30.97
2022-08-16T13:59:19.842Z,31.13
2022-08-16T14:01:55.695Z,31.52
2022-08-16T14:04:36.542Z,31.85
2022-08-16T14:07:08.939Z,32.14
2022-08-16T14:09:37.467Z,32.04
2022-08-16T14:12:18.016Z,31.97
2022-08-16T14:14:46.814Z,31.94
2022-08-16T14:17:14.459Z,31.91
2022-08-16T14:19:45.163Z,31.91
2022-08-16T14:22:30.908Z,31.79
2022-08-16T14:25:03.093Z,31.73
2022-08-16T14:27:32.141Z,31.58
2022-08-16T14:30:01.348Z,31.19
2022-08-16T14:32:33.971Z,30.97
2022-08-16T14:35:07.252Z,31.11
2022-08-16T14:37:35.788Z,31.24
2022-08-16T14:40:05.658Z,31.26
2022-08-16T14:42:34.234Z,30.97
2022-08-16T14:45:06.146Z,30.77
2022-08-16T14:47:37.266Z,30.84
2022-08-16T14:50:08.776Z,30.90
2022-08-16T14:52:54.524Z,31.05
2022-08-16T14:55:23.395Z,31.20
2022-08-16T14:57:52.712Z,31.28
2022-08-16T15:00:27.026Z,31.19
2022-08-16T15:03:03.033Z,31.13
2022-08-16T15:05:32.219Z,31.25
2022-08-16T15:07:59.904Z,31.25
2022-08-16T15:10:29.266Z,31.19
2022-08-16T15:13:00.990Z,31.32
2022-08-16T15:15:30.901Z,31.50
2022-08-16T15:17:59.640Z,31.58
2022-08-16T15:20:32.489Z,31.64
2022-08-16T15:23:04.001Z,31.52
2022-08-16T15:25:41.886Z,31.22
2022-08-16T15:28:30.934Z,31.10
2022-08-16T15:31:03.689Z,31.01
2022-08-16T15:33:39.221Z,31.04
2022-08-16T15:36:12.177Z,31.13
2022-08-16T15:39:02.734Z,31.10
2022-08-16T15:41:43.556Z,31.00
2022-08-16T15:44:14.137Z,30.76
2022-08-16T15:46:55.093Z,30.60
2022-08-16T15:49:34.878Z,30.39
2022-08-16T15:52:29.275Z,30.32
2022-08-16T15:54:58.851Z,30.20
2022-08-16T15:57:28.773Z,29.99
2022-08-16T16:00:15.133Z,29.99
2022-08-16T16:02:44.113Z,29.98
2022-08-16T16:05:11.918Z,29.88
2022-08-16T16:07:56.823Z,29.83
2022-08-16T16:10:29.927Z,29.69
2022-08-16T16:13:00.562Z,29.68
2022-08-16T16:15:31.856Z,29.68
2022-08-16T16:18:09.154Z,29.70
2022-08-16T16:20:43.743Z,29.64
2022-08-16T16:23:12.186Z,29.69
2022-08-16T16:25:43.960Z,29.66
2022-08-16T16:29:05.039Z,29.67
2022-08-16T16:31:04.836Z,29.67
2022-08-16T16:33:38.910Z,29.66
2022-08-16T16:36:08.642Z,29.65
2022-08-16T16:38:39.292Z,29.67
2022-08-16T16:41:10.449Z,29.64
2022-08-16T16:43:40.941Z,29.60
2022-08-16T16:46:38.939Z,29.58
2022-08-16T16:48:57.993Z,29.60
2022-08-16T16:51:28.187Z,29.61
2022-08-16T16:53:57.034Z,29.52
2022-08-16T16:56:36.912Z,29.48
2022-08-16T16:59:10.170Z,29.41
2022-08-16T17:01:57.406Z,29.34
2022-08-16T17:04:31.350Z,29.22
2022-08-16T17:07:00.665Z,29.11
2022-08-16T17:09:28.731Z,29.06
2022-08-16T17:11:58.371Z,28.96
2022-08-16T17:14:32.986Z,28.97
2022-08-16T17:17:03.907Z,28.92
2022-08-16T17:19:32.070Z,28.83
2022-08-16T17:22:01.053Z,28.70
2022-08-16T17:24:31.267Z,28.60
2022-08-16T17:27:08.021Z,28.51
2022-08-16T17:29:42.835Z,28.44
2022-08-16T17:32:47.064Z,28.34
2022-08-16T17:35:18.403Z,28.31
2022-08-16T17:37:51.008Z,28.26
2022-08-16T17:40:47.329Z,28.19
2022-08-16T17:43:13.348Z,28.12
2022-08-16T17:45:42.616Z,28.04
2022-08-16T17:48:11.601Z,27.98
2022-08-16T17:50:40.076Z,27.94
2022-08-16T17:53:08.627Z,27.92
2022-08-16T17:55:40.528Z,27.88
2022-08-16T17:58:22.957Z,27.81
2022-08-16T18:00:54.084Z,27.74
2022-08-16T18:04:07.282Z,27.68
2022-08-16T18:06:17.705Z,27.56
2022-08-16T18:08:51.998Z,27.48
2022-08-16T18:11:26.355Z,27.35
2022-08-16T18:13:55.194Z,27.27
2022-08-16T18:16:24.578Z,27.19
2022-08-16T18:18:52.157Z,27.12
2022-08-16T18:21:38.068Z,27.07
2022-08-16T18:24:05.963Z,27.01
2022-08-16T18:26:33.759Z,26.96
2022-08-16T18:29:01.234Z,26.89
2022-08-16T18:31:28.883Z,26.82
2022-08-16T18:33:56.820Z,26.78
2022-08-16T18:36:25.382Z,26.71
2022-08-16T18:38:53.420Z,26.64
2022-08-16T18:41:23.905Z,26.56
2022-08-16T18:44:23.136Z,26.51
2022-08-16T18:46:45.607Z,26.42
2022-08-16T18:49:17.978Z,26.32
2022-08-16T18:51:45.656Z,26.25
2022-08-16T18:54:18.156Z,26.18
2022-08-16T18:56:53.871Z,26.15
2022-08-16T18:59:27.330Z,26.09
2022-08-16T19:01:59.650Z,26.09
2022-08-16T19:04:50.563Z,26.07
2022-08-16T19:07:15.937Z,25.99
2022-08-16T19:09:43.576Z,25.99
2022-08-16T19:12:10.682Z,26.01
2022-08-16T19:14:37.815Z,26.03
2022-08-16T19:17:05.390Z,25.96
2022-08-16T19:19:32.472Z,25.95
2022-08-16T19:21:59.704Z,25.96
2022-08-16T19:24:29.234Z,25.86
2022-08-16T19:26:57.110Z,25.87
2022-08-16T19:29:25.140Z,25.65
2022-08-16T19:31:52.320Z,25.80
2022-08-16T19:34:19.594Z,25.79
2022-08-16T19:36:46.687Z,25.73
2022-08-16T19:39:16.462Z,25.72
2022-08-16T19:41:52.091Z,25.65
2022-08-16T19:44:23.194Z,25.65
2022-08-16T19:46:51.523Z,25.63
2022-08-16T19:49:18.658Z,25.58
2022-08-16T19:51:47.646Z,25.56
2022-08-16T19:54:15.452Z,25.55
2022-08-16T19:56:42.551Z,25.50
2022-08-16T19:59:20.055Z,25.46
2022-08-16T20:01:51.089Z,25.43
2022-08-16T20:04:18.603Z,25.30
2022-08-16T20:06:47.041Z,25.40
2022-08-16T20:09:15.342Z,25.33
2022-08-16T20:11:47.233Z,25.33
2022-08-16T20:14:19.256Z,25.33
2022-08-16T20:16:55.471Z,25.32
2022-08-16T20:19:22.625Z,25.29
2022-08-16T20:21:49.929Z,25.29
2022-08-16T20:24:33.428Z,25.28
2022-08-16T20:27:06.025Z,25.28
2022-08-16T20:29:34.032Z,25.30
2022-08-16T20:32:01.830Z,25.29
2022-08-16T20:34:29.332Z,25.33
2022-08-16T20:36:56.815Z,25.08
2022-08-16T20:39:24.403Z,25.24
2022-08-16T20:41:51.893Z,25.21
2022-08-16T20:44:22.792Z,25.15
2022-08-16T20:46:52.803Z,25.15
2022-08-16T20:49:19.879Z,25.14
2022-08-16T20:51:51.789Z,25.10
2022-08-16T20:54:22.138Z,25.09
2022-08-16T20:56:49.620Z,25.10
2022-08-16T20:59:17.618Z,25.11
2022-08-16T21:01:49.681Z,25.11
2022-08-16T21:04:25.429Z,25.01
2022-08-16T21:06:55.109Z,25.08
2022-08-16T21:09:35.076Z,25.04
2022-08-16T21:12:12.928Z,25.04
2022-08-16T21:14:43.078Z,25.05
2022-08-16T21:17:13.267Z,25.03
2022-08-16T21:19:40.850Z,24.96
2022-08-16T21:22:23.998Z,24.95
2022-08-16T21:24:53.866Z,24.93
2022-08-16T21:27:21.589Z,24.92
2022-08-16T21:29:52.347Z,24.91
2022-08-16T21:32:35.008Z,24.92
2022-08-16T21:35:10.179Z,24.85
2022-08-16T21:37:38.191Z,24.79
2022-08-16T21:40:08.513Z,24.78
2022-08-16T21:42:37.327Z,24.76
2022-08-16T21:45:05.794Z,24.76
2022-08-16T21:47:33.363Z,24.74
2022-08-16T21:50:00.865Z,24.75
2022-08-16T21:52:28.530Z,24.68
2022-08-16T21:54:57.026Z,24.65
2022-08-16T21:57:24.926Z,24.65
2022-08-16T21:59:54.301Z,24.62
2022-08-16T22:02:24.127Z,24.57
2022-08-16T22:04:52.268Z,24.47
2022-08-16T22:07:20.044Z,24.39
2022-08-16T22:09:50.290Z,24.36
2022-08-16T22:12:28.678Z,24.32
2022-08-16T22:14:56.165Z,24.29
2022-08-16T22:17:23.643Z,24.28
2022-08-16T22:19:53.725Z,24.20
2022-08-16T22:22:21.179Z,24.15
2022-08-16T22:24:48.742Z,24.10
2022-08-16T22:27:16.494Z,24.10
2022-08-16T22:29:43.959Z,24.10
2022-08-16T22:32:11.368Z,24.06
2022-08-16T22:34:39.039Z,24.04
2022-08-16T22:37:06.457Z,24.00
2022-08-16T22:39:33.935Z,24.02
2022-08-16T22:42:08.938Z,24.01
2022-08-16T22:44:37.191Z,23.93
2022-08-16T22:47:05.151Z,23.77
2022-08-16T22:49:33.255Z,23.75
2022-08-16T22:52:08.577Z,23.73
2022-08-16T22:54:47.945Z,23.75
2022-08-16T22:57:16.368Z,23.75
2022-08-16T22:59:43.903Z,23.71
2022-08-16T23:02:11.547Z,23.62
2022-08-16T23:04:39.337Z,23.61
2022-08-16T23:07:06.736Z,23.61
2022-08-16T23:09:34.461Z,23.61
2022-08-16T23:12:04.143Z,23.63
2022-08-16T23:14:32.851Z,23.64
2022-08-16T23:17:00.355Z,23.66
2022-08-16T23:19:27.863Z,23.68
2022-08-16T23:21:55.281Z,23.66
2022-08-16T23:24:24.284Z,23.62
2022-08-16T23:26:51.740Z,23.53
2022-08-16T23:29:25.270Z,23.46
2022-08-16T23:31:56.403Z,23.41
2022-08-16T23:34:24.273Z,23.16
2022-08-16T23:36:51.846Z,23.38
2022-08-16T23:39:19.538Z,23.40
2022-08-16T23:41:47.064Z,23.37
2022-08-16T23:44:56.743Z,23.37
2022-08-16T23:47:02.331Z,23.38
2022-08-16T23:50:01.062Z,23.35
2022-08-16T23:52:18.990Z,23.29
2022-08-16T23:55:06.918Z,23.29
2022-08-16T23:57:34.444Z,23.32
